الصفحة الرئيسية
METAR-TAF:

METAR-TAF

مطار :

أثينا, اليونان

مطار أثينا الدولي

دائرة عرض: 37-56N, خط طول: 023-56E, ارتفاع: 94 متر

مراقبة الطقس الحالي

تاريخ ووقت الإصدار 25 دقيقة قبل الساعة 10:50UTC
ريح 14 عقدة من الجنوب الغربي
درجة الحرارة 16°درجة مئوية
الرطوبة 59%
ضغط 1008 hPa
الرؤية 10 كم أو أكثر
غيوم قليلة على ارتفاع 3000 قدم
غيوم متفرقة على ارتفاع 6000 قدم

METAR: LGAV 171050Z 22014KT 9999 FEW030 SCT060 16/08 Q1008 NOSIG

زمن: 13:15 (11:15 UTC)

توقعات

تاريخ ووقت الإصدار 6ساعات و 15 دقيقة قبل الساعة 05:00UTC
التوقعات صالحة من17 الساعة 06 UTC إلى 18 الساعة 06 UTC
ريح 12 عقدة من الغرب
الرؤية 10 كم أو أكثر
غيوم قليلة على ارتفاع 2500 قدم
أصبح
من 17 الساعة 12 UTC إلى 17 الساعة 14 UTC
ريح 15 عقدة من الجنوب الغربي تتزايد حتى 25 عقدة
أصبح
من 17 الساعة 19 UTC إلى 17 الساعة 21 UTC
ريح 18 عقدة من الغرب تتزايد حتى 28 عقدة
غيوم متفرقة على ارتفاع 2500 قدم
أصبح
من 18 الساعة 01 UTC إلى 18 الساعة 03 UTC
ريح 18 عقدة من الشمال الغربي تتزايد حتى 28 عقدة

TAF: LGAV 170500Z 1706/1806 26012KT 9999 FEW025 BECMG 1712/1714 22015G25KT BECMG 1719/1721 27018G28KT SCT025 BECMG 1801/1803 32018G28KT

أرصاد الطقس والتوقعات من أكثر من 4000 مطار (تقارير الطقس للمطار METAR والتنبؤ بالطقس بالمطارTAF).

المحطات المتاحة هي النقط الصفراء والحمراء على الخريطة.

حرك المؤشر فوق النقطة لمعرفة اسم المحطة.

ثم انقر لمعرفة أرصاد وتوقعات الطقس.

لتغيير الخارطة: اضغط على الأزرار الخضراء مع رمز الصليب الأسود للتكبير. على الزر الأخضر مع شرطة للتصغير، أو على الأسهم الخضراء للخرائط المجاورة.


METAR-TAF: